createdAt,value
2018-10-21T00:00:40.125Z,27.50
2018-10-21T00:03:07.286Z,25.30
2018-10-21T00:05:34.355Z,28.53
2018-10-21T00:08:01.509Z,27.57
2018-10-21T00:10:28.621Z,26.87
2018-10-21T00:12:55.699Z,27.67
2018-10-21T00:15:22.946Z,25.40
2018-10-21T00:17:49.908Z,26.70
2018-10-21T00:20:17.025Z,27.60
2018-10-21T00:22:44.101Z,29.73
2018-10-21T00:25:11.216Z,28.07
2018-10-21T00:27:38.321Z,25.57
2018-10-21T00:30:05.907Z,27.80
2018-10-21T00:32:38.760Z,27.23
2018-10-21T00:35:06.708Z,30.17
2018-10-21T00:37:33.811Z,26.07
2018-10-21T00:40:00.915Z,28.13
2018-10-21T00:42:28.013Z,25.00
2018-10-21T00:44:55.219Z,25.80
2018-10-21T00:47:22.288Z,24.87
2018-10-21T00:49:49.403Z,28.20
2018-10-21T00:52:16.484Z,26.80
2018-10-21T00:54:43.584Z,25.37
2018-10-21T00:57:10.784Z,25.33
2018-10-21T00:59:37.780Z,26.67
2018-10-21T01:02:05.592Z,26.33
2018-10-21T01:04:32.700Z,28.27
2018-10-21T01:06:59.832Z,25.97
2018-10-21T01:09:26.921Z,27.27
2018-10-21T01:11:54.029Z,29.10
2018-10-21T01:14:21.188Z,27.87
2018-10-21T01:16:48.276Z,28.37
2018-10-21T01:19:15.380Z,25.17
2018-10-21T01:21:42.477Z,26.03
2018-10-21T01:24:09.561Z,25.50
2018-10-21T01:26:36.641Z,27.07
2018-10-21T01:29:03.755Z,26.03
2018-10-21T01:31:30.844Z,26.57
2018-10-21T01:33:57.964Z,25.17
2018-10-21T01:36:25.522Z,24.90
2018-10-21T01:38:52.240Z,26.80
2018-10-21T01:41:19.345Z,25.03
2018-10-21T01:43:46.429Z,26.20
2018-10-21T01:46:13.509Z,26.53
2018-10-21T01:48:40.616Z,27.07
2018-10-21T01:51:07.728Z,25.57
2018-10-21T01:53:34.827Z,22.57
2018-10-21T01:56:01.920Z,22.97
2018-10-21T01:58:29.008Z,23.30
2018-10-21T02:00:56.121Z,27.60
2018-10-21T02:03:23.212Z,26.10
2018-10-21T02:05:50.315Z,23.87
2018-10-21T02:08:17.425Z,24.63
2018-10-21T02:10:44.535Z,25.70
2018-10-21T02:13:11.659Z,27.43
2018-10-21T02:15:38.752Z,30.67
2018-10-21T02:18:05.877Z,27.67
2018-10-21T02:20:33.024Z,29.53
2018-10-21T02:23:00.124Z,27.20
2018-10-21T02:25:27.269Z,23.60
2018-10-21T02:27:54.392Z,29.27
2018-10-21T02:30:23.245Z,25.33
2018-10-21T02:32:51.140Z,25.77
2018-10-21T02:35:18.736Z,26.30
2018-10-21T02:37:46.253Z,28.33
2018-10-21T02:41:44.634Z,24.77
2018-10-21T02:44:21.377Z,26.93
2018-10-21T02:46:49.613Z,29.10
2018-10-21T02:49:17.261Z,24.77
2018-10-21T02:52:14.998Z,29.00
2018-10-21T02:54:42.888Z,24.53
2018-10-21T02:57:10.994Z,28.73
2018-10-21T02:59:38.173Z,28.33
2018-10-21T03:02:05.337Z,26.07
2018-10-21T03:04:32.568Z,23.83
2018-10-21T03:06:59.744Z,27.00
2018-10-21T03:09:27.237Z,25.90
2018-10-21T03:11:54.477Z,24.47
2018-10-21T03:14:21.597Z,26.27
2018-10-21T03:16:48.706Z,23.37
2018-10-21T03:19:15.814Z,22.20
2018-10-21T03:21:42.906Z,23.73
2018-10-21T03:24:10.008Z,24.53
2018-10-21T03:26:37.108Z,23.90
2018-10-21T03:29:04.259Z,22.40
2018-10-21T03:31:31.333Z,25.43
2018-10-21T03:33:58.573Z,22.97
2018-10-21T03:36:25.556Z,24.90
2018-10-21T03:38:52.692Z,21.90
2018-10-21T03:41:19.788Z,22.57
2018-10-21T03:43:46.907Z,22.10
2018-10-21T03:46:14.886Z,24.60
2018-10-21T03:48:42.008Z,21.80
2018-10-21T03:51:09.204Z,21.67
2018-10-21T03:53:36.284Z,21.17
2018-10-21T03:56:03.408Z,20.70
2018-10-21T03:58:30.564Z,20.73
2018-10-21T04:00:57.652Z,20.73
2018-10-21T04:03:24.754Z,22.90
2018-10-21T04:05:51.857Z,22.00
2018-10-21T04:08:18.941Z,20.63
2018-10-21T04:10:46.037Z,23.03
2018-10-21T04:13:13.137Z,20.70
2018-10-21T04:15:40.255Z,20.43
2018-10-21T04:18:07.369Z,19.57
2018-10-21T04:20:34.472Z,19.13
2018-10-21T04:23:02.568Z,20.63
2018-10-21T04:25:30.840Z,19.33
2018-10-21T04:27:58.781Z,18.97
2018-10-21T04:30:28.013Z,18.83
2018-10-21T04:32:58.157Z,18.07
2018-10-21T04:35:25.298Z,21.03
2018-10-21T04:40:09.285Z,18.70
2018-10-21T04:42:36.436Z,18.97
2018-10-21T04:45:03.948Z,18.90
2018-10-21T04:47:31.416Z,18.30
2018-10-21T04:49:58.548Z,21.37
2018-10-21T04:52:26.338Z,17.27
2018-10-21T04:54:53.449Z,19.37
2018-10-21T04:57:20.544Z,19.03
2018-10-21T04:59:47.644Z,21.10
2018-10-21T05:02:14.740Z,17.63
2018-10-21T05:04:41.828Z,21.87
2018-10-21T05:07:08.977Z,18.50
2018-10-21T05:09:36.073Z,19.10
2018-10-21T05:12:03.228Z,18.60
2018-10-21T05:14:30.313Z,20.30
2018-10-21T05:16:57.421Z,19.80
2018-10-21T05:19:24.597Z,20.00
2018-10-21T05:21:51.689Z,21.37
2018-10-21T05:24:18.764Z,17.73
2018-10-21T05:26:45.849Z,22.50
2018-10-21T05:29:12.969Z,22.30
2018-10-21T05:31:40.056Z,21.57
2018-10-21T05:34:07.281Z,21.87
2018-10-21T05:36:34.413Z,25.00
2018-10-21T05:39:01.524Z,23.77
2018-10-21T05:41:28.625Z,22.33
2018-10-21T05:43:55.732Z,26.73
2018-10-21T05:46:38.590Z,24.50
2018-10-21T05:49:05.826Z,24.30
2018-10-21T05:51:32.916Z,27.85
2018-10-21T05:54:00.009Z,26.40
2018-10-21T05:56:27.111Z,32.27
2018-10-21T05:58:54.192Z,28.37
2018-10-21T06:01:21.293Z,26.37
2018-10-21T06:03:48.397Z,25.27
2018-10-21T06:06:15.485Z,31.97
2018-10-21T06:08:42.574Z,27.23
2018-10-21T06:11:09.665Z,26.77
2018-10-21T06:13:36.749Z,27.37
2018-10-21T06:16:03.918Z,33.27
2018-10-21T06:18:30.964Z,26.27
2018-10-21T06:21:02.192Z,25.20
2018-10-21T06:23:29.319Z,24.17
2018-10-21T06:25:56.431Z,29.00
2018-10-21T06:28:23.548Z,30.80
2018-10-21T06:30:50.656Z,31.53
2018-10-21T06:33:17.864Z,24.87
2018-10-21T06:35:44.852Z,24.90
2018-10-21T06:38:11.944Z,33.20
2018-10-21T06:40:39.036Z,31.20
2018-10-21T06:43:06.232Z,32.63
2018-10-21T06:45:33.374Z,26.30
2018-10-21T06:48:00.442Z,32.97
2018-10-21T06:50:27.536Z,32.00
2018-10-21T06:52:54.636Z,31.60
2018-10-21T06:55:21.748Z,28.20
2018-10-21T06:57:48.875Z,27.70
2018-10-21T07:00:15.945Z,27.13
2018-10-21T07:02:43.057Z,34.17
2018-10-21T07:05:22.338Z,29.20
2018-10-21T07:07:50.015Z,29.00
2018-10-21T07:10:17.750Z,27.10
2018-10-21T07:12:44.785Z,30.17
2018-10-21T07:15:11.902Z,28.80
2018-10-21T07:17:39.004Z,25.50
2018-10-21T07:20:06.209Z,28.70
2018-10-21T07:22:33.296Z,31.60
2018-10-21T07:25:00.417Z,31.73
2018-10-21T07:27:27.561Z,36.43
2018-10-21T07:29:54.665Z,34.37
2018-10-21T07:32:21.769Z,35.30
2018-10-21T07:34:48.876Z,33.10
2018-10-21T07:37:15.991Z,37.47
2018-10-21T07:39:43.088Z,34.83
2018-10-21T07:42:10.193Z,38.17
2018-10-21T07:44:37.264Z,39.20
2018-10-21T07:47:04.729Z,36.17
2018-10-21T07:49:31.829Z,40.10
2018-10-21T07:51:58.966Z,43.93
2018-10-21T07:54:26.038Z,45.30
2018-10-21T07:56:53.140Z,47.87
2018-10-21T07:59:20.284Z,44.43
2018-10-21T08:01:47.444Z,44.33
2018-10-21T08:04:14.635Z,47.70
2018-10-21T08:06:53.272Z,43.07
2018-10-21T08:09:20.360Z,45.00
2018-10-21T08:11:47.453Z,45.60
2018-10-21T08:14:14.540Z,46.27
2018-10-21T08:16:41.636Z,45.73
2018-10-21T08:19:08.728Z,44.17
2018-10-21T08:21:35.832Z,44.37
2018-10-21T08:24:02.948Z,42.00
2018-10-21T08:26:30.062Z,44.50
2018-10-21T08:28:57.157Z,45.73
2018-10-21T08:31:24.277Z,45.23
2018-10-21T08:33:51.383Z,49.70
2018-10-21T08:36:18.489Z,50.63
2018-10-21T08:38:45.564Z,43.10
2018-10-21T08:41:12.652Z,47.23
2018-10-21T08:43:39.768Z,41.67
2018-10-21T08:46:06.910Z,45.53
2018-10-21T08:48:34.040Z,42.03
2018-10-21T08:51:01.122Z,46.83
2018-10-21T08:53:28.224Z,45.50
2018-10-21T08:55:55.335Z,42.83
2018-10-21T08:58:22.409Z,43.57
2018-10-21T09:00:49.528Z,44.13
2018-10-21T09:03:16.608Z,50.67
2018-10-21T09:05:43.712Z,46.03
2018-10-21T09:08:10.830Z,47.20
2018-10-21T09:10:37.973Z,43.77
2018-10-21T09:13:05.115Z,49.13
2018-10-21T09:15:32.283Z,45.30
2018-10-21T09:17:59.362Z,42.80
2018-10-21T09:20:26.479Z,41.00
2018-10-21T09:22:53.600Z,43.70
2018-10-21T09:25:20.700Z,44.90
2018-10-21T09:27:47.911Z,37.07
2018-10-21T09:30:16.814Z,44.23
2018-10-21T09:32:43.917Z,39.57
2018-10-21T09:35:12.533Z,40.00
2018-10-21T09:37:40.404Z,37.30
2018-10-21T09:40:09.444Z,38.40
2018-10-21T09:42:36.491Z,35.37
2018-10-21T09:45:04.425Z,36.20
2018-10-21T09:47:31.529Z,37.63
2018-10-21T09:49:58.704Z,36.80
2018-10-21T09:52:25.764Z,33.00
2018-10-21T09:54:52.853Z,35.67
2018-10-21T09:57:20.028Z,33.37
2018-10-21T09:59:47.116Z,34.90
2018-10-21T10:02:19.833Z,33.80
2018-10-21T10:04:46.941Z,34.40
2018-10-21T10:07:14.100Z,31.27
2018-10-21T10:09:41.165Z,29.60
2018-10-21T10:12:08.272Z,33.37
2018-10-21T10:14:35.361Z,32.07
2018-10-21T10:17:02.498Z,29.83
2018-10-21T10:19:29.586Z,34.13
2018-10-21T10:21:56.761Z,34.60
2018-10-21T10:24:23.861Z,31.00
2018-10-21T10:26:50.945Z,33.40
2018-10-21T10:29:18.048Z,32.43
2018-10-21T10:31:45.157Z,33.73
2018-10-21T10:34:12.335Z,35.90
2018-10-21T10:36:39.405Z,30.00
2018-10-21T10:39:08.668Z,35.20
2018-10-21T10:41:35.888Z,32.23
2018-10-21T10:44:03.228Z,33.37
2018-10-21T10:46:30.313Z,34.47
2018-10-21T10:48:57.418Z,33.77
2018-10-21T10:51:24.536Z,33.90
2018-10-21T10:53:51.633Z,36.83
2018-10-21T10:56:18.704Z,34.23
2018-10-21T10:58:45.856Z,38.50
2018-10-21T11:01:13.038Z,34.67
2018-10-21T11:03:40.074Z,35.03
2018-10-21T11:06:07.178Z,36.50
2018-10-21T11:08:34.269Z,33.10
2018-10-21T11:11:01.365Z,27.07
2018-10-21T11:13:28.455Z,32.83
2018-10-21T11:15:55.572Z,28.87
2018-10-21T11:18:22.666Z,32.57
2018-10-21T11:20:49.757Z,32.67
2018-10-21T11:23:16.870Z,31.07
2018-10-21T11:25:43.960Z,31.50
2018-10-21T11:28:11.120Z,30.07
2018-10-21T11:30:38.174Z,30.97
2018-10-21T11:33:05.682Z,28.03
2018-10-21T11:35:32.821Z,30.63
2018-10-21T11:37:59.900Z,28.00
2018-10-21T11:40:26.980Z,31.33
2018-10-21T11:42:54.090Z,27.40
2018-10-21T11:45:21.150Z,31.17
2018-10-21T11:47:48.245Z,31.43
2018-10-21T11:50:15.336Z,27.60
2018-10-21T11:52:42.508Z,28.80
2018-10-21T11:55:09.836Z,26.30
2018-10-21T11:57:36.933Z,28.87
2018-10-21T12:00:04.537Z,24.07
2018-10-21T12:02:31.639Z,22.80
2018-10-21T12:04:58.719Z,27.27
2018-10-21T12:07:25.826Z,24.27
2018-10-21T12:09:52.913Z,24.13
2018-10-21T12:12:20.008Z,27.57
2018-10-21T12:14:47.109Z,23.33
2018-10-21T12:17:14.204Z,23.60
2018-10-21T12:19:41.365Z,19.60
2018-10-21T12:22:08.523Z,20.23
2018-10-21T12:24:35.518Z,20.73
2018-10-21T12:27:02.636Z,21.00
2018-10-21T12:29:29.716Z,18.10
2018-10-21T12:31:56.816Z,19.73
2018-10-21T12:34:23.917Z,17.93
2018-10-21T12:36:51.012Z,19.63
2018-10-21T12:39:18.121Z,15.20
2018-10-21T12:41:45.219Z,17.43
2018-10-21T12:44:12.313Z,20.03
2018-10-21T12:46:39.496Z,18.73
2018-10-21T12:49:06.617Z,19.00
2018-10-21T12:51:33.748Z,17.83
2018-10-21T12:54:00.906Z,22.40
2018-10-21T12:56:27.938Z,23.63
2018-10-21T12:58:55.045Z,20.10
2018-10-21T13:01:22.140Z,18.17
2018-10-21T13:03:49.228Z,17.43
2018-10-21T13:06:16.320Z,20.30
2018-10-21T13:08:43.420Z,13.17
2018-10-21T13:11:10.519Z,18.20
2018-10-21T13:13:37.801Z,16.63
2018-10-21T13:16:04.985Z,15.93
2018-10-21T13:18:32.032Z,14.90
2018-10-21T13:20:59.136Z,18.10
2018-10-21T13:23:26.233Z,15.40
2018-10-21T13:25:53.313Z,14.57
2018-10-21T13:28:20.823Z,16.57
2018-10-21T13:30:47.813Z,17.10
2018-10-21T13:33:14.894Z,15.23
2018-10-21T13:35:41.985Z,15.70
2018-10-21T13:38:09.098Z,18.70
2018-10-21T13:40:36.276Z,16.13
2018-10-21T13:43:03.852Z,15.43
2018-10-21T13:45:30.932Z,15.07
2018-10-21T13:47:58.006Z,18.47
2018-10-21T13:50:25.112Z,18.00
2018-10-21T13:52:52.206Z,17.10
2018-10-21T13:55:19.305Z,17.40
2018-10-21T13:57:46.387Z,13.77
2018-10-21T14:00:13.505Z,15.67
2018-10-21T14:02:40.605Z,16.33
2018-10-21T14:05:08.270Z,13.63
2018-10-21T14:07:35.393Z,12.67
2018-10-21T14:10:02.613Z,15.13
2018-10-21T14:12:29.740Z,16.23
2018-10-21T14:14:56.849Z,17.10
2018-10-21T14:17:23.944Z,12.70
2018-10-21T14:19:51.044Z,10.40
2018-10-21T14:22:18.251Z,12.97
2018-10-21T14:24:45.371Z,14.70
2018-10-21T14:27:12.497Z,16.43
2018-10-21T14:29:39.638Z,16.43
2018-10-21T14:32:06.744Z,13.80
2018-10-21T14:34:33.861Z,13.80
2018-10-21T14:37:00.955Z,11.13
2018-10-21T14:39:28.041Z,12.37
2018-10-21T14:41:55.158Z,13.40
2018-10-21T14:44:22.252Z,9.77
2018-10-21T14:46:49.332Z,9.17
2018-10-21T14:49:16.429Z,12.60
2018-10-21T14:51:43.516Z,11.50
2018-10-21T14:54:10.649Z,11.10
2018-10-21T14:56:37.680Z,12.13
2018-10-21T14:59:04.856Z,10.03
2018-10-21T15:01:31.940Z,11.57
2018-10-21T15:03:59.073Z,13.30
2018-10-21T15:06:26.145Z,14.83
2018-10-21T15:08:53.236Z,14.60
2018-10-21T15:11:20.336Z,13.17
2018-10-21T15:13:47.428Z,12.53
2018-10-21T15:16:14.559Z,12.07
2018-10-21T15:18:41.620Z,10.93
2018-10-21T15:21:08.716Z,10.43
2018-10-21T15:23:35.831Z,11.80
2018-10-21T15:26:03.007Z,18.57
2018-10-21T15:28:30.045Z,13.83
2018-10-21T15:30:57.150Z,14.70
2018-10-21T15:33:24.231Z,13.67
2018-10-21T15:35:51.329Z,13.70
2018-10-21T15:38:18.537Z,14.43
2018-10-21T15:40:45.568Z,13.20
2018-10-21T15:43:12.672Z,11.87
2018-10-21T15:45:39.820Z,11.50
2018-10-21T15:48:06.924Z,10.07
2018-10-21T15:50:34.088Z,11.60
2018-10-21T15:53:01.137Z,14.37
2018-10-21T15:55:28.338Z,13.07
2018-10-21T15:57:55.515Z,8.93
2018-10-21T16:00:22.580Z,10.03
2018-10-21T16:02:49.660Z,11.57
2018-10-21T16:05:16.744Z,8.60
2018-10-21T16:07:43.832Z,9.80
2018-10-21T16:10:10.968Z,10.20
2018-10-21T16:12:38.474Z,10.13
2018-10-21T16:15:11.255Z,10.00
2018-10-21T16:17:38.336Z,11.83
2018-10-21T16:20:05.781Z,10.53
2018-10-21T16:22:32.912Z,10.60
2018-10-21T16:24:59.990Z,10.43
2018-10-21T16:27:27.153Z,8.73
2018-10-21T16:29:54.273Z,10.27
2018-10-21T16:32:21.384Z,9.60
2018-10-21T16:34:48.448Z,7.27
2018-10-21T16:37:15.549Z,7.53
2018-10-21T16:39:42.648Z,7.53
2018-10-21T16:42:09.741Z,8.93
2018-10-21T16:44:36.832Z,9.57
2018-10-21T16:47:04.322Z,8.13
2018-10-21T16:49:31.427Z,9.07
2018-10-21T16:51:58.529Z,10.83
2018-10-21T16:54:25.622Z,9.13
2018-10-21T16:56:52.704Z,11.90
2018-10-21T16:59:19.956Z,9.57
2018-10-21T17:01:46.948Z,9.10
2018-10-21T17:04:14.061Z,8.67
2018-10-21T17:06:41.152Z,9.10
2018-10-21T17:09:10.048Z,12.53
2018-10-21T17:11:37.064Z,8.17
2018-10-21T17:14:04.173Z,9.50
2018-10-21T17:16:31.258Z,9.57
2018-10-21T17:18:58.365Z,8.90
2018-10-21T17:21:25.467Z,11.83
2018-10-21T17:23:52.541Z,10.83
2018-10-21T17:26:19.656Z,11.47
2018-10-21T17:28:46.829Z,11.50
2018-10-21T17:31:13.863Z,8.93
2018-10-21T17:33:40.948Z,11.33
2018-10-21T17:36:08.044Z,11.33
2018-10-21T17:38:35.128Z,10.87
2018-10-21T17:41:02.241Z,10.27
2018-10-21T17:43:29.329Z,15.33
2018-10-21T17:45:56.504Z,11.63
2018-10-21T17:48:23.599Z,10.57
2018-10-21T17:50:50.696Z,8.97
2018-10-21T17:53:17.799Z,8.00
2018-10-21T17:55:44.876Z,9.30
2018-10-21T17:58:12.079Z,11.03
2018-10-21T18:00:39.188Z,10.10
2018-10-21T18:03:06.284Z,11.43
2018-10-21T18:05:33.377Z,10.87
2018-10-21T18:08:00.534Z,10.43
2018-10-21T18:10:27.672Z,8.93
2018-10-21T18:12:54.777Z,11.67
2018-10-21T18:15:21.848Z,10.33
2018-10-21T18:17:48.952Z,12.03
2018-10-21T18:20:16.058Z,11.70
2018-10-21T18:22:43.162Z,12.03
2018-10-21T18:25:10.339Z,11.27
2018-10-21T18:27:37.479Z,16.53
2018-10-21T18:30:06.633Z,14.47
2018-10-21T18:32:33.760Z,15.40
2018-10-21T18:35:00.853Z,16.70
2018-10-21T18:37:27.937Z,14.27
2018-10-21T18:39:55.026Z,21.87
2018-10-21T18:42:22.105Z,15.20
2018-10-21T18:44:49.268Z,15.87
2018-10-21T18:47:16.345Z,14.00
2018-10-21T18:49:43.525Z,15.37
2018-10-21T18:52:10.671Z,14.97
2018-10-21T18:54:37.697Z,13.33
2018-10-21T18:57:04.852Z,15.03
2018-10-21T18:59:31.924Z,15.57
2018-10-21T19:01:59.053Z,17.33
2018-10-21T19:04:26.248Z,18.63
2018-10-21T19:06:53.348Z,12.17
2018-10-21T19:09:22.920Z,18.70
2018-10-21T19:11:50.004Z,17.53
2018-10-21T19:14:17.133Z,24.67
2018-10-21T19:16:48.368Z,21.97
2018-10-21T19:19:15.549Z,22.90
2018-10-21T19:21:42.559Z,24.47
2018-10-21T19:24:09.661Z,23.07
2018-10-21T19:26:37.548Z,22.87
2018-10-21T19:29:04.679Z,22.70
2018-10-21T19:31:31.787Z,23.67
2018-10-21T19:33:58.968Z,21.10
2018-10-21T19:36:26.006Z,21.87
2018-10-21T19:38:53.092Z,25.47
2018-10-21T19:41:20.192Z,23.63
2018-10-21T19:43:47.276Z,26.80
2018-10-21T19:46:14.419Z,28.03
2018-10-21T19:48:41.471Z,21.77
2018-10-21T19:51:08.558Z,27.03
2018-10-21T19:53:35.640Z,20.07
2018-10-21T19:56:02.764Z,23.23
2018-10-21T19:58:29.914Z,25.50
2018-10-21T20:00:57.048Z,20.93
2018-10-21T20:03:24.084Z,21.90
2018-10-21T20:05:51.179Z,23.93
2018-10-21T20:08:18.269Z,22.00
2018-10-21T20:10:45.365Z,21.07
2018-10-21T20:13:12.507Z,21.07
2018-10-21T20:15:39.570Z,25.50
2018-10-21T20:18:06.659Z,30.57
2018-10-21T20:20:33.766Z,28.50
2018-10-21T20:23:00.848Z,27.83
2018-10-21T20:25:27.952Z,26.10
2018-10-21T20:27:55.115Z,28.07
2018-10-21T20:30:22.389Z,24.40
2018-10-21T20:32:49.572Z,25.40
2018-10-21T20:35:16.585Z,22.70
2018-10-21T20:37:44.468Z,23.67
2018-10-21T20:40:11.661Z,22.60
2018-10-21T20:42:38.681Z,24.37
2018-10-21T20:45:07.273Z,23.43
2018-10-21T20:47:34.365Z,22.60
2018-10-21T20:50:01.464Z,22.90
2018-10-21T20:52:28.593Z,23.57
2018-10-21T20:54:55.712Z,22.93
2018-10-21T20:57:22.800Z,23.10
2018-10-21T20:59:49.889Z,21.87
2018-10-21T21:02:17.008Z,19.83
2018-10-21T21:04:44.092Z,20.53
2018-10-21T21:07:11.256Z,26.47
2018-10-21T21:09:39.081Z,22.60
2018-10-21T21:12:06.269Z,22.30
2018-10-21T21:14:33.589Z,23.13
2018-10-21T21:17:01.051Z,21.90
2018-10-21T21:19:28.140Z,22.00
2018-10-21T21:21:55.248Z,21.10
2018-10-21T21:24:22.337Z,25.90
2018-10-21T21:26:49.433Z,25.37
2018-10-21T21:29:16.590Z,24.40
2018-10-21T21:31:44.453Z,23.67
2018-10-21T21:34:11.640Z,24.53
2018-10-21T21:36:38.714Z,23.00
2018-10-21T21:39:08.783Z,27.00
2018-10-21T21:41:35.899Z,28.30
2018-10-21T21:44:03.016Z,26.57
2018-10-21T21:46:30.189Z,23.57
2018-10-21T21:48:57.244Z,21.03
2018-10-21T21:51:24.324Z,19.43
2018-10-21T21:53:51.412Z,23.90
2018-10-21T21:56:18.524Z,18.67
2018-10-21T21:58:45.622Z,18.23
2018-10-21T22:01:12.732Z,19.70
2018-10-21T22:03:39.824Z,20.10
2018-10-21T22:06:06.986Z,23.37
2018-10-21T22:08:34.038Z,18.87
2018-10-21T22:11:01.125Z,20.17
2018-10-21T22:13:28.244Z,20.83
2018-10-21T22:15:55.349Z,24.20
2018-10-21T22:18:22.446Z,20.33
2018-10-21T22:20:49.568Z,22.93
2018-10-21T22:23:16.652Z,20.70
2018-10-21T22:25:43.748Z,21.97
2018-10-21T22:28:10.874Z,23.77
2018-10-21T22:30:37.944Z,22.77
2018-10-21T22:33:05.048Z,20.23
2018-10-21T22:35:32.146Z,23.63
2018-10-21T22:37:59.265Z,23.03
2018-10-21T22:40:26.348Z,21.37
2018-10-21T22:42:53.449Z,22.53
2018-10-21T22:45:20.536Z,20.73
2018-10-21T22:47:47.632Z,19.90
2018-10-21T22:50:14.721Z,24.40
2018-10-21T22:52:42.182Z,19.57
2018-10-21T22:55:09.331Z,19.97
2018-10-21T22:57:36.439Z,20.13
2018-10-21T23:00:04.650Z,21.53
2018-10-21T23:02:31.740Z,26.83
2018-10-21T23:04:58.825Z,24.70
2018-10-21T23:07:25.908Z,21.65
2018-10-21T23:09:52.984Z,20.93
2018-10-21T23:12:20.222Z,23.27
2018-10-21T23:14:47.191Z,22.50
2018-10-21T23:17:14.268Z,24.93
2018-10-21T23:19:43.479Z,22.50
2018-10-21T23:22:10.672Z,26.30
2018-10-21T23:24:38.388Z,26.20
2018-10-21T23:27:05.859Z,22.53
2018-10-21T23:29:32.948Z,21.87
2018-10-21T23:32:00.040Z,24.40
2018-10-21T23:34:27.414Z,22.27
2018-10-21T23:36:55.072Z,23.10
2018-10-21T23:39:22.161Z,23.40
2018-10-21T23:41:49.237Z,23.07
2018-10-21T23:44:16.620Z,22.00
2018-10-21T23:46:43.708Z,32.03
2018-10-21T23:49:10.792Z,25.03
2018-10-21T23:51:37.873Z,25.00
2018-10-21T23:54:05.016Z,24.20
2018-10-21T23:56:32.164Z,23.07
2018-10-21T23:58:59.248Z,26.93
